sensor_id;sensor_type;location;lat;lon;timestamp;pressure;altitude;pressure_sealevel;temperature;humidity
59419;BME280;45224;50.904;6.038;2023-04-01T00:00:37;97637.78;;;8.55;100.00
59419;BME280;45224;50.904;6.038;2023-04-01T00:02:08;97637.09;;;8.49;100.00
59419;BME280;45224;50.904;6.038;2023-04-01T00:03:38;97636.88;;;8.58;100.00
59419;BME280;45224;50.904;6.038;2023-04-01T00:05:10;97631.81;;;8.55;100.00
59419;BME280;45224;50.904;6.038;2023-04-01T00:06:40;97636.19;;;8.51;100.00
59419;BME280;45224;50.904;6.038;2023-04-01T00:08:11;97643.97;;;8.50;100.00
59419;BME280;45224;50.904;6.038;2023-04-01T00:09:41;97637.97;;;8.48;100.00
59419;BME280;45224;50.904;6.038;2023-04-01T00:11:12;97634.25;;;8.59;100.00
59419;BME280;45224;50.904;6.038;2023-04-01T00:12:43;97643.88;;;8.53;100.00
59419;BME280;45224;50.904;6.038;2023-04-01T00:14:14;97629.94;;;8.60;100.00
59419;BME280;45224;50.904;6.038;2023-04-01T00:15:44;97624.78;;;8.60;100.00
59419;BME280;45224;50.904;6.038;2023-04-01T00:17:15;97637.88;;;8.52;100.00
59419;BME280;45224;50.904;6.038;2023-04-01T00:18:46;97625.81;;;8.54;100.00
59419;BME280;45224;50.904;6.038;2023-04-01T00:20:17;97626.63;;;8.56;100.00
59419;BME280;45224;50.904;6.038;2023-04-01T00:21:47;97629.41;;;8.47;100.00
59419;BME280;45224;50.904;6.038;2023-04-01T00:23:19;97627.47;;;8.55;100.00
59419;BME280;45224;50.904;6.038;2023-04-01T00:24:49;97624.03;;;8.56;100.00
59419;BME280;45224;50.904;6.038;2023-04-01T00:26:20;97634.25;;;8.59;100.00
59419;BME280;45224;50.904;6.038;2023-04-01T00:27:51;97626.81;;;8.49;100.00
59419;BME280;45224;50.904;6.038;2023-04-01T00:29:22;97628.59;;;8.47;100.00
59419;BME280;45224;50.904;6.038;2023-04-01T00:30:54;97629.50;;;8.44;100.00
59419;BME280;45224;50.904;6.038;2023-04-01T00:32:25;97634.56;;;8.47;100.00
59419;BME280;45224;50.904;6.038;2023-04-01T00:33:56;97629.50;;;8.44;100.00
59419;BME280;45224;50.904;6.038;2023-04-01T00:35:27;97626.72;;;8.52;100.00
59419;BME280;45224;50.904;6.038;2023-04-01T00:36:57;97628.72;;;8.40;100.00
59419;BME280;45224;50.904;6.038;2023-04-01T00:38:27;97626.09;;;8.42;100.00
59419;BME280;45224;50.904;6.038;2023-04-01T00:39:58;97632.75;;;8.51;100.00
59419;BME280;45224;50.904;6.038;2023-04-01T00:41:29;97619.72;;;8.57;100.00
59419;BME280;45224;50.904;6.038;2023-04-01T00:42:59;97630.97;;;8.54;100.00
59419;BME280;45224;50.904;6.038;2023-04-01T00:44:32;97623.44;;;8.47;100.00
59419;BME280;45224;50.904;6.038;2023-04-01T00:46:03;97629.31;;;8.52;100.00
59419;BME280;45224;50.904;6.038;2023-04-01T00:47:34;97630.22;;;8.49;100.00
59419;BME280;45224;50.904;6.038;2023-04-01T00:49:04;97627.41;;;8.58;100.00
59419;BME280;45224;50.904;6.038;2023-04-01T00:50:37;97629.19;;;8.56;100.00
59419;BME280;45224;50.904;6.038;2023-04-01T00:52:12;97621.47;;;8.56;100.00
59419;BME280;45224;50.904;6.038;2023-04-01T00:53:46;97636.22;;;8.50;100.00
59419;BME280;45224;50.904;6.038;2023-04-01T00:55:19;97639.56;;;8.53;100.00
59419;BME280;45224;50.904;6.038;2023-04-01T00:56:55;97637.06;;;8.50;100.00
59419;BME280;45224;50.904;6.038;2023-04-01T00:58:31;97625.81;;;8.54;100.00
59419;BME280;45224;50.904;6.038;2023-04-01T01:00:09;97638.13;;;8.43;100.00
59419;BME280;45224;50.904;6.038;2023-04-01T01:01:41;97629.34;;;8.50;100.00
59419;BME280;45224;50.904;6.038;2023-04-01T01:03:12;97632.72;;;8.52;100.00
59419;BME280;45224;50.904;6.038;2023-04-01T01:04:42;97631.88;;;8.52;100.00
59419;BME280;45224;50.904;6.038;2023-04-01T01:08:09;97633.78;;;8.45;100.00
59419;BME280;45224;50.904;6.038;2023-04-01T01:11:44;97623.66;;;8.36;100.00
59419;BME280;45224;50.904;6.038;2023-04-01T01:13:26;97615.03;;;8.38;100.00
59419;BME280;45224;50.904;6.038;2023-04-01T01:15:14;97619.19;;;8.43;100.00
59419;BME280;45224;50.904;6.038;2023-04-01T01:16:53;97617.56;;;8.40;100.00
59419;BME280;45224;50.904;6.038;2023-04-01T01:22:14;97631.19;;;8.45;100.00
59419;BME280;45224;50.904;6.038;2023-04-01T01:28:00;97615.44;;;8.57;100.00
59419;BME280;45224;50.904;6.038;2023-04-01T01:35:23;97611.31;;;8.50;100.00
59419;BME280;45224;50.904;6.038;2023-04-01T01:36:59;97617.19;;;8.55;100.00
59419;BME280;45224;50.904;6.038;2023-04-01T01:38:34;97605.50;;;8.42;100.00
59419;BME280;45224;50.904;6.038;2023-04-01T01:40:10;97615.56;;;8.53;100.00
59419;BME280;45224;50.904;6.038;2023-04-01T01:41:44;97623.19;;;8.56;100.00
59419;BME280;45224;50.904;6.038;2023-04-01T01:43:23;97615.31;;;8.61;100.00
59419;BME280;45224;50.904;6.038;2023-04-01T01:44:56;97608.75;;;8.50;100.00
59419;BME280;45224;50.904;6.038;2023-04-01T01:46:30;97620.75;;;8.51;100.00
59419;BME280;45224;50.904;6.038;2023-04-01T01:48:02;97610.78;;;8.36;100.00
59419;BME280;45224;50.904;6.038;2023-04-01T01:49:33;97619.25;;;8.41;100.00
59419;BME280;45224;50.904;6.038;2023-04-01T01:51:06;97613.22;;;8.44;100.00
59419;BME280;45224;50.904;6.038;2023-04-01T01:52:37;97618.28;;;8.47;100.00
59419;BME280;45224;50.904;6.038;2023-04-01T01:54:12;97609.81;;;8.41;100.00
59419;BME280;45224;50.904;6.038;2023-04-01T01:55:47;97626.25;;;8.36;100.00
59419;BME280;45224;50.904;6.038;2023-04-01T01:57:24;97607.44;;;8.34;100.00
59419;BME280;45224;50.904;6.038;2023-04-01T01:59:02;97614.09;;;8.41;100.00
59419;BME280;45224;50.904;6.038;2023-04-01T02:00:35;97608.06;;;8.44;100.00
59419;BME280;45224;50.904;6.038;2023-04-01T02:02:08;97609.56;;;8.51;100.00
59419;BME280;45224;50.904;6.038;2023-04-01T02:03:42;97611.75;;;8.33;100.00
59419;BME280;45224;50.904;6.038;2023-04-01T02:05:17;97620.84;;;8.47;100.00
59419;BME280;45224;50.904;6.038;2023-04-01T02:07:02;97607.22;;;8.43;100.00
59419;BME280;45224;50.904;6.038;2023-04-01T02:08:40;97628.25;;;8.25;100.00
59419;BME280;45224;50.904;6.038;2023-04-01T02:10:13;97609.28;;;8.29;100.00
59419;BME280;45224;50.904;6.038;2023-04-01T02:11:55;97626.16;;;8.39;100.00
59419;BME280;45224;50.904;6.038;2023-04-01T02:13:35;97619.13;;;8.47;100.00
59419;BME280;45224;50.904;6.038;2023-04-01T02:15:14;97620.09;;;8.43;100.00
59419;BME280;45224;50.904;6.038;2023-04-01T02:16:58;97622.06;;;8.32;100.00
59419;BME280;45224;50.904;6.038;2023-04-01T02:18:33;97626.25;;;8.36;100.00
59419;BME280;45224;50.904;6.038;2023-04-01T02:20:12;97617.56;;;8.40;100.00
59419;BME280;45224;50.904;6.038;2023-04-01T02:21:45;97625.25;;;8.43;100.00
59419;BME280;45224;50.904;6.038;2023-04-01T02:23:16;97634.72;;;8.39;100.00
59419;BME280;45224;50.904;6.038;2023-04-01T02:24:48;97626.16;;;8.39;100.00
59419;BME280;45224;50.904;6.038;2023-04-01T02:26:20;97626.16;;;8.39;100.00
59419;BME280;45224;50.904;6.038;2023-04-01T02:27:53;97621.94;;;8.36;100.00
59419;BME280;45224;50.904;6.038;2023-04-01T02:29:25;97634.56;;;8.47;100.00
59419;BME280;45224;50.904;6.038;2023-04-01T02:30:56;97634.81;;;8.36;100.00
59419;BME280;45224;50.904;6.038;2023-04-01T02:32:29;97623.63;;;8.37;100.00
59419;BME280;45224;50.904;6.038;2023-04-01T02:34:03;97639.84;;;8.41;100.00
59419;BME280;45224;50.904;6.038;2023-04-01T02:35:36;97646.91;;;8.33;100.00
59419;BME280;45224;50.904;6.038;2023-04-01T02:37:07;97627.94;;;8.37;100.00
59419;BME280;45224;50.904;6.038;2023-04-01T02:38:38;97638.22;;;8.38;100.00
59419;BME280;45224;50.904;6.038;2023-04-01T02:40:12;97644.03;;;8.47;100.00
59419;BME280;45224;50.904;6.038;2023-04-01T02:41:44;97643.91;;;8.51;100.00
59419;BME280;45224;50.904;6.038;2023-04-01T02:43:15;97636.53;;;8.36;100.00
59419;BME280;45224;50.904;6.038;2023-04-01T02:44:46;97632.00;;;8.47;100.00
59419;BME280;45224;50.904;6.038;2023-04-01T02:46:17;97639.00;;;8.40;100.00
59419;BME280;45224;50.904;6.038;2023-04-01T02:47:48;97633.63;;;8.51;100.00
59419;BME280;45224;50.904;6.038;2023-04-01T02:49:18;97647.75;;;8.35;100.00
59419;BME280;45224;50.904;6.038;2023-04-01T02:50:50;97645.19;;;8.35;100.00
59419;BME280;45224;50.904;6.038;2023-04-01T02:52:21;97647.56;;;8.41;100.00
59419;BME280;45224;50.904;6.038;2023-04-01T02:53:51;97651.13;;;8.37;100.00
59419;BME280;45224;50.904;6.038;2023-04-01T02:55:22;97647.75;;;8.35;100.00
59419;BME280;45224;50.904;6.038;2023-04-01T02:56:52;97642.72;;;8.30;100.00
59419;BME280;45224;50.904;6.038;2023-04-01T02:58:23;97649.31;;;8.40;100.00
59419;BME280;45224;50.904;6.038;2023-04-01T02:59:53;97649.19;;;8.47;100.00
59419;BME280;45224;50.904;6.038;2023-04-01T03:01:24;97648.34;;;8.46;100.00
59419;BME280;45224;50.904;6.038;2023-04-01T03:02:54;97650.94;;;8.46;100.00
59419;BME280;45224;50.904;6.038;2023-04-01T03:04:26;97651.16;;;8.35;100.00
59419;BME280;45224;50.904;6.038;2023-04-01T03:05:56;97644.72;;;8.53;100.00
59419;BME280;45224;50.904;6.038;2023-04-01T03:07:28;97644.66;;;8.56;100.00
59419;BME280;45224;50.904;6.038;2023-04-01T03:08:59;97649.22;;;8.45;100.00
59419;BME280;45224;50.904;6.038;2023-04-01T03:10:30;97651.03;;;8.40;100.00
59419;BME280;45224;50.904;6.038;2023-04-01T03:12:00;97653.41;;;8.49;100.00
59419;BME280;45224;50.904;6.038;2023-04-01T03:13:32;97655.19;;;8.47;100.00
59419;BME280;45224;50.904;6.038;2023-04-01T03:15:03;97659.34;;;8.53;100.00
59419;BME280;45224;50.904;6.038;2023-04-01T03:16:34;97656.13;;;8.45;100.00
59419;BME280;45224;50.904;6.038;2023-04-01T03:18:05;97658.47;;;8.52;100.00
59419;BME280;45224;50.904;6.038;2023-04-01T03:19:35;97655.47;;;8.35;100.00
59419;BME280;45224;50.904;6.038;2023-04-01T03:21:18;97649.28;;;8.42;100.00
59419;BME280;45224;50.904;6.038;2023-04-01T03:22:49;97654.41;;;8.44;100.00
59419;BME280;45224;50.904;6.038;2023-04-01T03:24:20;97656.88;;;8.48;100.00
59419;BME280;45224;50.904;6.038;2023-04-01T03:25:51;97664.06;;;8.34;100.00
59419;BME280;45224;50.904;6.038;2023-04-01T03:27:22;97653.56;;;8.43;100.00
59419;BME280;45224;50.904;6.038;2023-04-01T03:28:53;97666.56;;;8.37;100.00
59419;BME280;45224;50.904;6.038;2023-04-01T03:30:23;97664.81;;;8.37;100.00
59419;BME280;45224;50.904;6.038;2023-04-01T03:31:54;97663.81;;;8.46;100.00
59419;BME280;45224;50.904;6.038;2023-04-01T03:33:28;97664.88;;;8.36;100.00
59419;BME280;45224;50.904;6.038;2023-04-01T03:34:58;97675.03;;;8.42;100.00
59419;BME280;45224;50.904;6.038;2023-04-01T03:36:29;97655.28;;;8.41;100.00
59419;BME280;45224;50.904;6.038;2023-04-01T03:38:00;97672.44;;;8.42;100.00
59419;BME280;45224;50.904;6.038;2023-04-01T03:39:31;97671.00;;;8.32;100.00
59419;BME280;45224;50.904;6.038;2023-04-01T03:41:01;97676.94;;;8.34;100.00
59419;BME280;45224;50.904;6.038;2023-04-01T03:42:33;97667.50;;;8.33;100.00
59419;BME280;45224;50.904;6.038;2023-04-01T03:44:03;97683.03;;;8.30;100.00
59419;BME280;45224;50.904;6.038;2023-04-01T03:45:34;97685.47;;;8.36;100.00
59419;BME280;45224;50.904;6.038;2023-04-01T03:47:04;97687.97;;;8.39;100.00
59419;BME280;45224;50.904;6.038;2023-04-01T03:48:35;97684.59;;;8.37;100.00
59419;BME280;45224;50.904;6.038;2023-04-01T03:50:07;97680.25;;;8.39;100.00
59419;BME280;45224;50.904;6.038;2023-04-01T03:51:39;97682.06;;;8.35;100.00
59419;BME280;45224;50.904;6.038;2023-04-01T03:53:10;97684.75;;;8.31;100.00
59419;BME280;45224;50.904;6.038;2023-04-01T03:54:44;97679.72;;;8.25;100.00
59419;BME280;45224;50.904;6.038;2023-04-01T03:56:15;97688.13;;;8.33;100.00
59419;BME280;45224;50.904;6.038;2023-04-01T03:57:45;97688.75;;;8.41;100.00
59419;BME280;45224;50.904;6.038;2023-04-01T03:59:22;97679.06;;;8.52;100.00
59419;BME280;45224;50.904;6.038;2023-04-01T04:00:52;97687.56;;;8.57;100.00
59419;BME280;45224;50.904;6.038;2023-04-01T04:02:23;97696.00;;;8.63;100.00
59419;BME280;45224;50.904;6.038;2023-04-01T04:03:53;97688.47;;;8.55;100.00
59419;BME280;45224;50.904;6.038;2023-04-01T04:05:26;97694.38;;;8.58;100.00
59419;BME280;45224;50.904;6.038;2023-04-01T04:06:57;97696.00;;;8.63;100.00
59419;BME280;45224;50.904;6.038;2023-04-01T04:08:29;97693.63;;;8.55;100.00
59419;BME280;45224;50.904;6.038;2023-04-01T04:09:59;97706.69;;;8.47;100.00
59419;BME280;45224;50.904;6.038;2023-04-01T04:11:31;97695.63;;;8.42;100.00
59419;BME280;45224;50.904;6.038;2023-04-01T04:13:02;97696.38;;;8.47;100.00
59419;BME280;45224;50.904;6.038;2023-04-01T04:14:35;97693.88;;;8.44;100.00
59419;BME280;45224;50.904;6.038;2023-04-01T04:16:08;97710.47;;;8.31;100.00
59419;BME280;45224;50.904;6.038;2023-04-01T04:17:40;97705.00;;;8.46;100.00
59419;BME280;45224;50.904;6.038;2023-04-01T04:19:11;97704.19;;;8.44;100.00
59419;BME280;45224;50.904;6.038;2023-04-01T04:20:45;97702.63;;;8.37;100.00
59419;BME280;45224;50.904;6.038;2023-04-01T04:22:18;97706.88;;;8.38;100.00
59419;BME280;45224;50.904;6.038;2023-04-01T04:23:50;97711.25;;;8.34;100.00
59419;BME280;45224;50.904;6.038;2023-04-01T04:25:22;97702.50;;;8.43;100.00
59419;BME280;45224;50.904;6.038;2023-04-01T04:26:53;97712.06;;;8.36;100.00
59419;BME280;45224;50.904;6.038;2023-04-01T04:28:24;97710.41;;;8.34;100.00
59419;BME280;45224;50.904;6.038;2023-04-01T04:29:56;97713.94;;;8.30;100.00
59419;BME280;45224;50.904;6.038;2023-04-01T04:31:27;97711.94;;;8.41;100.00
59419;BME280;45224;50.904;6.038;2023-04-01T04:32:59;97711.84;;;8.47;100.00
59419;BME280;45224;50.904;6.038;2023-04-01T04:34:31;97711.91;;;8.44;100.00
59419;BME280;45224;50.904;6.038;2023-04-01T04:36:03;97706.22;;;8.30;100.00
59419;BME280;45224;50.904;6.038;2023-04-01T04:37:34;97708.56;;;8.39;100.00
59419;BME280;45224;50.904;6.038;2023-04-01T04:39:04;97715.63;;;8.31;100.00
59419;BME280;45224;50.904;6.038;2023-04-01T04:40:38;97717.47;;;8.26;100.00
59419;BME280;45224;50.904;6.038;2023-04-01T04:42:10;97715.75;;;8.26;100.00
59419;BME280;45224;50.904;6.038;2023-04-01T04:43:41;97720.66;;;8.37;100.00
59419;BME280;45224;50.904;6.038;2023-04-01T04:45:12;97721.72;;;8.27;100.00
59419;BME280;45224;50.904;6.038;2023-04-01T04:46:47;97726.69;;;8.34;100.00
59419;BME280;45224;50.904;6.038;2023-04-01T04:48:19;97730.06;;;8.36;100.00
59419;BME280;45224;50.904;6.038;2023-04-01T04:49:50;97722.19;;;8.44;100.00
59419;BME280;45224;50.904;6.038;2023-04-01T04:51:22;97723.84;;;8.48;100.00
59419;BME280;45224;50.904;6.038;2023-04-01T04:52:53;97717.78;;;8.49;100.00
59419;BME280;45224;50.904;6.038;2023-04-01T04:54:23;97727.25;;;8.49;100.00
59419;BME280;45224;50.904;6.038;2023-04-01T04:56:00;97732.44;;;8.47;100.00
59419;BME280;45224;50.904;6.038;2023-04-01T04:57:41;97735.97;;;8.43;100.00
59419;BME280;45224;50.904;6.038;2023-04-01T04:59:11;97742.69;;;8.49;100.00
59419;BME280;45224;50.904;6.038;2023-04-01T05:00:52;97739.91;;;8.58;100.00
59419;BME280;45224;50.904;6.038;2023-04-01T05:02:27;97740.16;;;8.47;100.00
59419;BME280;45224;50.904;6.038;2023-04-01T05:03:59;97741.69;;;8.56;100.00
59419;BME280;45224;50.904;6.038;2023-04-01T05:05:29;97752.09;;;8.51;100.00
59419;BME280;45224;50.904;6.038;2023-04-01T05:07:00;97736.16;;;8.34;100.00
59419;BME280;45224;50.904;6.038;2023-04-01T05:08:31;97747.19;;;8.39;100.00
59419;BME280;45224;50.904;6.038;2023-04-01T05:10:03;97745.97;;;8.55;100.00
59419;BME280;45224;50.904;6.038;2023-04-01T05:11:34;97744.50;;;8.45;100.00
59419;BME280;45224;50.904;6.038;2023-04-01T05:13:05;97755.69;;;8.43;100.00
59419;BME280;45224;50.904;6.038;2023-04-01T05:14:35;97741.31;;;8.34;100.00
59419;BME280;45224;50.904;6.038;2023-04-01T05:16:15;97755.06;;;8.33;100.00
59419;BME280;45224;50.904;6.038;2023-04-01T05:17:46;97749.69;;;8.44;100.00
59419;BME280;45224;50.904;6.038;2023-04-01T05:19:16;97759.97;;;8.45;100.00
59419;BME280;45224;50.904;6.038;2023-04-01T05:20:51;97758.28;;;8.41;100.00
59419;BME280;45224;50.904;6.038;2023-04-01T05:22:22;97756.50;;;8.46;100.00
59419;BME280;45224;50.904;6.038;2023-04-01T05:23:52;97756.41;;;8.49;100.00
59419;BME280;45224;50.904;6.038;2023-04-01T05:25:23;97756.59;;;8.43;100.00
59419;BME280;45224;50.904;6.038;2023-04-01T05:26:54;97759.97;;;8.45;100.00
59419;BME280;45224;50.904;6.038;2023-04-01T05:28:25;97756.59;;;8.43;100.00
59419;BME280;45224;50.904;6.038;2023-04-01T05:29:56;97761.66;;;8.46;100.00
59419;BME280;45224;50.904;6.038;2023-04-01T05:31:43;97768.41;;;8.50;100.00
59419;BME280;45224;50.904;6.038;2023-04-01T05:33:13;97757.53;;;8.37;100.00
59419;BME280;45224;50.904;6.038;2023-04-01T05:34:44;97768.50;;;8.47;100.00
59419;BME280;45224;50.904;6.038;2023-04-01T05:36:16;97760.72;;;8.49;100.00
59419;BME280;45224;50.904;6.038;2023-04-01T05:37:48;97772.84;;;8.45;100.00
59419;BME280;45224;50.904;6.038;2023-04-01T05:39:18;97765.41;;;8.30;100.00
59419;BME280;45224;50.904;6.038;2023-04-01T05:40:49;97774.81;;;8.32;100.00
59419;BME280;45224;50.904;6.038;2023-04-01T05:42:20;97773.97;;;8.32;100.00
59419;BME280;45224;50.904;6.038;2023-04-01T05:43:50;97777.28;;;8.37;100.00
59419;BME280;45224;50.904;6.038;2023-04-01T05:45:57;97775.53;;;8.39;100.00
59419;BME280;45224;50.904;6.038;2023-04-01T05:47:48;97775.19;;;8.54;100.00
59419;BME280;45224;50.904;6.038;2023-04-01T05:49:19;97778.50;;;8.59;100.00
59419;BME280;45224;50.904;6.038;2023-04-01T05:50:50;97782.25;;;8.46;100.00
59419;BME280;45224;50.904;6.038;2023-04-01T05:52:21;97783.88;;;8.50;100.00
59419;BME280;45224;50.904;6.038;2023-04-01T05:53:51;97779.59;;;8.49;100.00
59419;BME280;45224;50.904;6.038;2023-04-01T05:55:23;97779.47;;;8.54;100.00
59419;BME280;45224;50.904;6.038;2023-04-01T05:56:55;97781.50;;;8.39;100.00
59419;BME280;45224;50.904;6.038;2023-04-01T05:58:25;97797.53;;;8.52;100.00
59419;BME280;45224;50.904;6.038;2023-04-01T05:59:58;97794.03;;;8.56;100.00
59419;BME280;45224;50.904;6.038;2023-04-01T06:01:33;97795.97;;;8.47;100.00
59419;BME280;45224;50.904;6.038;2023-04-01T06:03:09;97786.69;;;8.38;100.00
59419;BME280;45224;50.904;6.038;2023-04-01T06:04:40;97796.91;;;8.41;100.00
59419;BME280;45224;50.904;6.038;2023-04-01T06:06:24;97790.06;;;8.41;100.00
59419;BME280;45224;50.904;6.038;2023-04-01T06:07:59;97785.75;;;8.42;100.00
59419;BME280;45224;50.904;6.038;2023-04-01T06:09:31;97792.66;;;8.40;100.00
59419;BME280;45224;50.904;6.038;2023-04-01T06:21:27;97807.78;;;8.55;100.00
59419;BME280;45224;50.904;6.038;2023-04-01T06:32:31;97823.47;;;8.46;100.00
59419;BME280;45224;50.904;6.038;2023-04-01T06:36:13;97828.66;;;8.45;100.00
59419;BME280;45224;50.904;6.038;2023-04-01T06:38:01;97830.34;;;8.44;100.00
59419;BME280;45224;50.904;6.038;2023-04-01T06:42:12;97830.09;;;8.56;100.00
59419;BME280;45224;50.904;6.038;2023-04-01T06:44:11;97819.84;;;8.53;100.00
59419;BME280;45224;50.904;6.038;2023-04-01T06:48:12;97820.63;;;8.57;100.00
59419;BME280;45224;50.904;6.038;2023-04-01T06:54:10;97835.31;;;8.53;100.00
59419;BME280;45224;50.904;6.038;2023-04-01T06:56:08;97834.47;;;8.53;100.00
59419;BME280;45224;50.904;6.038;2023-04-01T06:58:04;97836.44;;;8.40;100.00
59419;BME280;45224;50.904;6.038;2023-04-01T06:59:36;97837.25;;;8.42;100.00
59419;BME280;45224;50.904;6.038;2023-04-01T07:01:12;97837.16;;;8.48;100.00
59419;BME280;45224;50.904;6.038;2023-04-01T07:02:54;97839.69;;;8.50;100.00
59419;BME280;45224;50.904;6.038;2023-04-01T07:04:34;97843.25;;;8.43;100.00
59419;BME280;45224;50.904;6.038;2023-04-01T07:07:59;97848.78;;;8.65;100.00
59419;BME280;45224;50.904;6.038;2023-04-01T07:09:35;97834.38;;;8.57;100.00
59419;BME280;45224;50.904;6.038;2023-04-01T07:11:35;97847.00;;;8.67;100.00
59419;BME280;45224;50.904;6.038;2023-04-01T07:13:31;97854.56;;;8.74;100.00
59419;BME280;45224;50.904;6.038;2023-04-01T07:15:16;97851.97;;;8.76;100.00
59419;BME280;45224;50.904;6.038;2023-04-01T07:16:56;97845.03;;;8.78;100.00
59419;BME280;45224;50.904;6.038;2023-04-01T07:18:41;97863.91;;;8.80;100.00
59419;BME280;45224;50.904;6.038;2023-04-01T07:20:25;97865.56;;;8.81;100.00
59419;BME280;45224;50.904;6.038;2023-04-01T07:22:03;97863.97;;;8.77;100.00
59419;BME280;45224;50.904;6.038;2023-04-01T07:23:54;97861.97;;;8.88;100.00
59419;BME280;45224;50.904;6.038;2023-04-01T07:25:48;97868.81;;;8.89;100.00
59419;BME280;45224;50.904;6.038;2023-04-01T07:27:52;97874.28;;;8.77;100.00
59419;BME280;45224;50.904;6.038;2023-04-01T07:29:25;97874.09;;;8.83;100.00
59419;BME280;45224;50.904;6.038;2023-04-01T07:34:30;97881.25;;;8.72;100.00
59419;BME280;45224;50.904;6.038;2023-04-01T07:36:14;97889.56;;;8.83;100.00
59419;BME280;45224;50.904;6.038;2023-04-01T07:38:15;97879.56;;;8.71;100.00
59419;BME280;45224;50.904;6.038;2023-04-01T07:47:55;97903.50;;;8.76;100.00
59419;BME280;45224;50.904;6.038;2023-04-01T07:57:02;97918.75;;;8.85;100.00
59419;BME280;45224;50.904;6.038;2023-04-01T08:01:17;97925.75;;;8.80;100.00
59419;BME280;45224;50.904;6.038;2023-04-01T08:06:36;97928.66;;;9.02;100.00
59419;BME280;45224;50.904;6.038;2023-04-01T08:10:18;97930.34;;;9.03;100.00
59419;BME280;45224;50.904;6.038;2023-04-01T08:12:25;97934.72;;;9.01;100.00
59419;BME280;45224;50.904;6.038;2023-04-01T08:16:29;97939.22;;;8.91;100.00
59419;BME280;45224;50.904;6.038;2023-04-01T08:18:20;97943.47;;;8.92;100.00
59419;BME280;45224;50.904;6.038;2023-04-01T08:20:18;97947.59;;;9.01;100.00
59419;BME280;45224;50.904;6.038;2023-04-01T08:21:56;97953.72;;;8.95;100.00
59419;BME280;45224;50.904;6.038;2023-04-01T08:23:37;97950.47;;;8.87;100.00
59419;BME280;45224;50.904;6.038;2023-04-01T08:25:16;97949.59;;;8.88;100.00
59419;BME280;45224;50.904;6.038;2023-04-01T08:26:51;97952.28;;;8.84;100.00
59419;BME280;45224;50.904;6.038;2023-04-01T08:28:31;97955.63;;;8.87;100.00
59419;BME280;45224;50.904;6.038;2023-04-01T08:30:23;97960.66;;;8.93;100.00
59419;BME280;45224;50.904;6.038;2023-04-01T08:31:55;97965.25;;;8.79;100.00
59419;BME280;45224;50.904;6.038;2023-04-01T08:33:28;97961.59;;;8.89;100.00
59419;BME280;45224;50.904;6.038;2023-04-01T08:36:50;97971.69;;;8.99;100.00
59419;BME280;45224;50.904;6.038;2023-04-01T08:38:31;97981.38;;;8.89;100.00
59419;BME280;45224;50.904;6.038;2023-04-01T08:42:18;97984.00;;;8.86;100.00
59419;BME280;45224;50.904;6.038;2023-04-01T08:45:53;97986.25;;;9.01;100.00
59419;BME280;45224;50.904;6.038;2023-04-01T08:53:03;97992.19;;;9.05;100.00
59419;BME280;45224;50.904;6.038;2023-04-01T08:56:53;97999.50;;;8.84;100.00
59419;BME280;45224;50.904;6.038;2023-04-01T09:00:32;97994.84;;;9.02;100.00
59419;BME280;45224;50.904;6.038;2023-04-01T09:04:18;97994.03;;;9.00;100.00
59419;BME280;45224;50.904;6.038;2023-04-01T09:15:26;98014.66;;;9.00;100.00
59419;BME280;45224;50.904;6.038;2023-04-01T09:24:35;98021.28;;;9.10;100.00
59419;BME280;45224;50.904;6.038;2023-04-01T09:28:19;98034.84;;;9.18;100.00
59419;BME280;45224;50.904;6.038;2023-04-01T09:31:26;98028.75;;;9.22;100.00
59419;BME280;45224;50.904;6.038;2023-04-01T09:43:20;98043.13;;;9.32;100.00
59419;BME280;45224;50.904;6.038;2023-04-01T09:44:59;98050.78;;;9.36;100.00
59419;BME280;45224;50.904;6.038;2023-04-01T09:46:52;98046.34;;;9.42;100.00
59419;BME280;45224;50.904;6.038;2023-04-01T09:50:38;98057.47;;;9.44;100.00
59419;BME280;45224;50.904;6.038;2023-04-01T09:52:24;98055.16;;;9.34;100.00
59419;BME280;45224;50.904;6.038;2023-04-01T10:11:37;98070.56;;;9.37;100.00
59419;BME280;45224;50.904;6.038;2023-04-01T10:19:27;98078.06;;;9.46;100.00
59419;BME280;45224;50.904;6.038;2023-04-01T10:24:39;98081.03;;;9.66;100.00
59419;BME280;45224;50.904;6.038;2023-04-01T10:26:47;98092.47;;;9.56;100.00
59419;BME280;45224;50.904;6.038;2023-04-01T10:28:47;98092.28;;;9.62;100.00
59419;BME280;45224;50.904;6.038;2023-04-01T10:33:42;98087.94;;;9.66;100.00
59419;BME280;45224;50.904;6.038;2023-04-01T10:36:55;98092.03;;;9.75;100.00
59419;BME280;45224;50.904;6.038;2023-04-01T10:51:00;98106.09;;;9.61;100.00
59419;BME280;45224;50.904;6.038;2023-04-01T10:54:36;98107.72;;;9.65;100.00
59419;BME280;45224;50.904;6.038;2023-04-01T11:03:29;98117.09;;;9.69;100.00
59419;BME280;45224;50.904;6.038;2023-04-01T11:13:56;98114.06;;;9.88;100.00
59419;BME280;45224;50.904;6.038;2023-04-01T11:26:16;98131.34;;;9.84;100.00
59419;BME280;45224;50.904;6.038;2023-04-01T11:28:47;98123.75;;;9.78;100.00
59419;BME280;45224;50.904;6.038;2023-04-01T11:30:58;98131.31;;;9.86;100.00
59419;BME280;45224;50.904;6.038;2023-04-01T11:32:48;98138.41;;;9.78;100.00
59419;BME280;45224;50.904;6.038;2023-04-01T11:36:16;98139.13;;;9.83;100.00
59419;BME280;45224;50.904;6.038;2023-04-01T11:38:06;98134.84;;;9.83;100.00
59419;BME280;45224;50.904;6.038;2023-04-01T11:44:25;98143.13;;;9.96;100.00
59419;BME280;45224;50.904;6.038;2023-04-01T11:46:27;98146.69;;;9.92;100.00
59419;BME280;45224;50.904;6.038;2023-04-01T11:49:57;98156.16;;;9.92;100.00
59419;BME280;45224;50.904;6.038;2023-04-01T11:58:47;98159.47;;;9.97;100.00
59419;BME280;45224;50.904;6.038;2023-04-01T12:04:50;98177.94;;;10.17;100.00
59419;BME280;45224;50.904;6.038;2023-04-01T12:06:48;98171.06;;;10.16;100.00
59419;BME280;45224;50.904;6.038;2023-04-01T12:12:18;98169.25;;;10.20;100.00
59419;BME280;45224;50.904;6.038;2023-04-01T12:14:30;98178.63;;;10.24;100.00
59419;BME280;45224;50.904;6.038;2023-04-01T12:18:14;98182.22;;;10.17;100.00